createdAt,value
2022-10-06T00:00:38.945Z,0.80
2022-10-06T00:03:07.134Z,0.57
2022-10-06T00:05:35.622Z,0.60
2022-10-06T00:08:03.995Z,0.90
2022-10-06T00:10:32.530Z,0.98
2022-10-06T00:13:02.261Z,0.95
2022-10-06T00:15:32.437Z,0.70
2022-10-06T00:18:01.056Z,1.10
2022-10-06T00:20:29.976Z,0.77
2022-10-06T00:22:58.564Z,0.98
2022-10-06T00:25:28.519Z,0.82
2022-10-06T00:27:56.854Z,0.60
2022-10-06T00:30:28.716Z,1.15
2022-10-06T00:32:58.881Z,0.73
2022-10-06T00:35:28.519Z,1.27
2022-10-06T00:37:56.902Z,0.98
2022-10-06T00:40:25.588Z,1.17
2022-10-06T00:42:56.401Z,1.15
2022-10-06T00:45:30.988Z,1.13
2022-10-06T00:48:02.377Z,1.00
2022-10-06T00:50:31.388Z,1.40
2022-10-06T00:52:59.745Z,1.20
2022-10-06T00:55:28.070Z,1.33
2022-10-06T00:57:56.382Z,1.77
2022-10-06T01:00:26.237Z,1.38
2022-10-06T01:02:58.079Z,1.38
2022-10-06T01:05:31.581Z,1.10
2022-10-06T01:08:00.070Z,1.52
2022-10-06T01:10:28.416Z,0.77
2022-10-06T01:12:57.176Z,1.13
2022-10-06T01:15:28.504Z,0.70
2022-10-06T01:18:03.190Z,1.05
2022-10-06T01:20:32.015Z,1.10
2022-10-06T01:23:06.308Z,1.10
2022-10-06T01:25:35.740Z,1.60
2022-10-06T01:28:06.562Z,1.25
2022-10-06T01:30:40.179Z,1.17
2022-10-06T01:33:08.637Z,1.30
2022-10-06T01:35:37.236Z,1.33
2022-10-06T01:38:06.819Z,1.60
2022-10-06T01:40:36.351Z,1.38
2022-10-06T01:43:04.600Z,1.88
2022-10-06T01:45:32.824Z,1.73
2022-10-06T01:48:01.531Z,1.60
2022-10-06T01:50:29.950Z,1.98
2022-10-06T01:52:58.565Z,2.10
2022-10-06T01:55:28.571Z,2.05
2022-10-06T01:57:58.802Z,2.03
2022-10-06T02:00:27.162Z,2.22
2022-10-06T02:02:56.007Z,2.13
2022-10-06T02:05:24.250Z,2.70
2022-10-06T02:07:54.280Z,2.28
2022-10-06T02:10:22.663Z,2.40
2022-10-06T02:12:54.751Z,2.85
2022-10-06T02:15:25.055Z,2.10
2022-10-06T02:17:53.933Z,2.92
2022-10-06T02:20:22.412Z,2.28
2022-10-06T02:22:51.420Z,2.75
2022-10-06T02:25:19.927Z,3.75
2022-10-06T02:27:48.196Z,2.92
2022-10-06T02:30:18.767Z,4.03
2022-10-06T02:32:48.283Z,4.20
2022-10-06T02:35:16.673Z,3.92
2022-10-06T02:37:46.082Z,4.72
2022-10-06T02:40:18.374Z,4.82
2022-10-06T02:42:47.928Z,4.70
2022-10-06T02:45:20.995Z,4.75
2022-10-06T02:47:49.747Z,5.05
2022-10-06T02:50:18.213Z,4.10
2022-10-06T02:52:47.499Z,4.28
2022-10-06T02:55:15.877Z,3.90
2022-10-06T02:57:44.143Z,4.10
2022-10-06T03:00:15.008Z,4.05
2022-10-06T03:02:44.953Z,3.40
2022-10-06T03:05:13.261Z,3.03
2022-10-06T03:07:41.571Z,3.10
2022-10-06T03:10:10.456Z,3.13
2022-10-06T03:12:38.961Z,3.20
2022-10-06T03:15:09.593Z,2.70
2022-10-06T03:17:37.889Z,3.30
2022-10-06T03:20:09.547Z,2.45
2022-10-06T03:22:38.003Z,2.72
2022-10-06T03:25:07.989Z,2.70
2022-10-06T03:27:36.310Z,2.63
2022-10-06T03:30:08.107Z,2.78
2022-10-06T03:32:38.154Z,3.10
2022-10-06T03:35:09.767Z,2.25
2022-10-06T03:37:38.300Z,1.90
2022-10-06T03:40:07.855Z,2.35
2022-10-06T03:42:38.015Z,2.60
2022-10-06T03:45:07.249Z,2.72
2022-10-06T03:47:35.594Z,2.78
2022-10-06T03:50:03.949Z,2.25
2022-10-06T03:52:34.157Z,2.45
2022-10-06T03:55:02.516Z,2.72
2022-10-06T03:57:30.828Z,2.40
2022-10-06T03:59:59.919Z,2.58
2022-10-06T04:02:28.639Z,2.15
2022-10-06T04:04:56.921Z,2.55
2022-10-06T04:07:25.846Z,2.50
2022-10-06T04:09:55.604Z,4.55
2022-10-06T04:12:23.910Z,2.50
2022-10-06T04:14:56.571Z,3.72
2022-10-06T04:17:29.083Z,3.38
2022-10-06T04:19:57.381Z,3.75
2022-10-06T04:22:25.748Z,4.45
2022-10-06T04:24:55.579Z,5.25
2022-10-06T04:27:29.482Z,6.63
2022-10-06T04:30:05.993Z,7.70
2022-10-06T04:32:35.462Z,13.60
2022-10-06T04:35:05.174Z,6.95
2022-10-06T04:37:33.682Z,19.38
2022-10-06T04:40:03.732Z,5.80
2022-10-06T04:42:35.348Z,7.45
2022-10-06T04:45:07.652Z,3.08
2022-10-06T04:47:37.395Z,2.97
2022-10-06T04:50:06.572Z,2.83
2022-10-06T04:52:34.945Z,2.03
2022-10-06T04:55:05.927Z,2.30
2022-10-06T04:57:34.209Z,2.20
2022-10-06T05:00:21.259Z,1.98
2022-10-06T05:02:49.585Z,2.00
2022-10-06T05:05:18.110Z,2.17
2022-10-06T05:07:47.472Z,1.92
2022-10-06T05:10:17.952Z,1.73
2022-10-06T05:12:46.600Z,2.55
2022-10-06T05:15:15.552Z,2.10
2022-10-06T05:17:43.941Z,1.63
2022-10-06T05:20:13.467Z,1.80
2022-10-06T05:22:42.084Z,2.60
2022-10-06T05:25:11.190Z,2.50
2022-10-06T05:27:40.809Z,1.92
2022-10-06T05:30:10.453Z,1.70
2022-10-06T05:32:39.146Z,2.30
2022-10-06T05:35:08.925Z,1.65
2022-10-06T05:37:37.325Z,2.25
2022-10-06T05:40:06.301Z,1.77
2022-10-06T05:42:34.601Z,1.60
2022-10-06T05:45:04.364Z,1.67
2022-10-06T05:47:32.759Z,1.98
2022-10-06T05:50:01.032Z,1.77
2022-10-06T05:52:29.414Z,1.95
2022-10-06T05:54:57.961Z,2.20
2022-10-06T05:57:27.026Z,1.52
2022-10-06T05:59:55.262Z,2.17
2022-10-06T06:02:25.063Z,2.25
2022-10-06T06:04:53.411Z,2.03
2022-10-06T06:07:21.957Z,1.85
2022-10-06T06:09:50.280Z,1.60
2022-10-06T06:12:18.874Z,2.47
2022-10-06T06:15:07.916Z,1.60
2022-10-06T06:17:42.435Z,1.63
2022-10-06T06:20:11.317Z,2.10
2022-10-06T06:22:39.716Z,2.00
2022-10-06T06:25:09.472Z,1.83
2022-10-06T06:27:40.598Z,1.67
2022-10-06T06:30:10.595Z,1.77
2022-10-06T06:32:39.063Z,2.75
2022-10-06T06:35:10.973Z,2.10
2022-10-06T06:37:39.516Z,2.30
2022-10-06T06:40:08.926Z,2.38
2022-10-06T06:42:39.783Z,1.60
2022-10-06T06:45:43.587Z,2.20
2022-10-06T06:48:26.658Z,2.00
2022-10-06T06:50:59.661Z,1.48
2022-10-06T06:53:31.188Z,1.15
2022-10-06T06:56:02.322Z,2.22
2022-10-06T06:58:33.197Z,1.60
2022-10-06T07:01:12.171Z,3.00
2022-10-06T07:03:58.619Z,1.63
2022-10-06T07:06:33.109Z,2.50
2022-10-06T07:09:03.673Z,2.13
2022-10-06T07:11:33.805Z,2.33
2022-10-06T07:14:05.532Z,2.08
2022-10-06T07:16:52.185Z,2.53
2022-10-06T07:19:39.621Z,1.55
2022-10-06T07:22:34.282Z,3.10
2022-10-06T07:25:12.626Z,3.28
2022-10-06T07:27:46.138Z,2.75
2022-10-06T07:30:20.596Z,3.00
2022-10-06T07:32:53.604Z,2.35
2022-10-06T07:35:24.582Z,2.40
2022-10-06T07:37:54.637Z,2.33
2022-10-06T07:40:25.358Z,2.13
2022-10-06T07:42:53.759Z,1.77
2022-10-06T07:45:41.305Z,1.50
2022-10-06T07:48:20.142Z,2.05
2022-10-06T07:51:03.469Z,2.40
2022-10-06T07:53:40.402Z,2.35
2022-10-06T07:56:41.311Z,2.40
2022-10-06T07:59:09.554Z,2.10
2022-10-06T08:01:37.817Z,2.65
2022-10-06T08:04:06.979Z,2.42
2022-10-06T08:06:35.591Z,2.58
2022-10-06T08:09:05.693Z,1.75
2022-10-06T08:11:34.470Z,1.83
2022-10-06T08:14:02.673Z,1.75
2022-10-06T08:16:31.079Z,3.00
2022-10-06T08:19:00.385Z,2.47
2022-10-06T08:21:30.735Z,2.65
2022-10-06T08:24:00.158Z,1.90
2022-10-06T08:26:30.972Z,2.38
2022-10-06T08:29:03.052Z,2.13
2022-10-06T08:31:32.947Z,3.58
2022-10-06T08:34:01.838Z,1.95
2022-10-06T08:36:32.306Z,1.65
2022-10-06T08:39:02.132Z,2.13
2022-10-06T08:41:43.105Z,2.15
2022-10-06T08:44:24.036Z,2.10
2022-10-06T08:46:57.806Z,1.77
2022-10-06T08:49:28.129Z,2.72
2022-10-06T08:52:02.165Z,2.22
2022-10-06T08:54:38.443Z,4.28
2022-10-06T08:57:14.961Z,2.80
2022-10-06T08:59:47.943Z,1.90
2022-10-06T09:02:27.720Z,3.38
2022-10-06T09:04:58.108Z,2.53
2022-10-06T09:07:33.184Z,3.15
2022-10-06T09:10:18.628Z,2.45
2022-10-06T09:12:52.703Z,2.50
2022-10-06T09:15:31.042Z,2.58
2022-10-06T09:18:07.412Z,2.95
2022-10-06T09:20:39.827Z,2.22
2022-10-06T09:23:15.432Z,2.65
2022-10-06T09:25:44.881Z,3.05
2022-10-06T09:28:16.635Z,2.60
2022-10-06T09:30:44.939Z,2.67
2022-10-06T09:33:22.456Z,3.00
2022-10-06T09:36:06.515Z,3.30
2022-10-06T09:38:49.116Z,3.67
2022-10-06T09:41:17.982Z,2.72
2022-10-06T09:43:56.016Z,3.22
2022-10-06T09:46:31.351Z,2.53
2022-10-06T09:49:18.526Z,3.58
2022-10-06T09:52:04.718Z,3.22
2022-10-06T09:54:34.812Z,3.67
2022-10-06T09:57:11.364Z,2.88
2022-10-06T09:59:45.383Z,3.13
2022-10-06T10:02:31.628Z,2.80
2022-10-06T10:04:59.904Z,2.60
2022-10-06T10:07:30.522Z,2.97
2022-10-06T10:10:20.173Z,2.75
2022-10-06T10:12:52.424Z,2.63
2022-10-06T10:15:33.110Z,2.17
2022-10-06T10:18:04.180Z,2.20
2022-10-06T10:20:36.336Z,2.72
2022-10-06T10:23:08.348Z,2.25
2022-10-06T10:25:50.277Z,2.20
2022-10-06T10:28:52.256Z,2.22
2022-10-06T10:31:32.041Z,2.17
2022-10-06T10:34:23.953Z,2.83
2022-10-06T10:36:55.396Z,2.15
2022-10-06T10:39:34.577Z,2.30
2022-10-06T10:42:07.677Z,2.53
2022-10-06T10:44:39.169Z,2.35
2022-10-06T10:47:15.976Z,2.63
2022-10-06T10:49:48.429Z,2.20
2022-10-06T10:52:20.274Z,2.25
2022-10-06T10:54:53.531Z,2.22
2022-10-06T10:57:29.054Z,2.13
2022-10-06T11:00:02.288Z,2.63
2022-10-06T11:02:33.263Z,2.17
2022-10-06T11:05:05.415Z,1.92
2022-10-06T11:07:40.116Z,2.58
2022-10-06T11:10:14.748Z,2.03
2022-10-06T11:13:11.508Z,2.13
2022-10-06T11:15:55.811Z,2.53
2022-10-06T11:18:41.506Z,1.92
2022-10-06T11:21:15.548Z,1.85
2022-10-06T11:23:54.835Z,1.90
2022-10-06T11:26:52.138Z,2.38
2022-10-06T11:29:34.646Z,1.73
2022-10-06T11:32:12.942Z,2.15
2022-10-06T11:34:43.171Z,3.10
2022-10-06T11:37:22.259Z,2.50
2022-10-06T11:40:01.051Z,2.05
2022-10-06T11:42:36.281Z,2.72
2022-10-06T11:45:13.835Z,2.25
2022-10-06T11:47:59.152Z,1.70
2022-10-06T11:50:40.284Z,2.35
2022-10-06T11:53:27.501Z,2.78
2022-10-06T11:56:41.047Z,1.80
2022-10-06T11:59:24.188Z,1.70
2022-10-06T12:02:00.842Z,1.83
2022-10-06T12:04:30.013Z,2.60
2022-10-06T12:07:02.113Z,2.30
2022-10-06T12:09:33.305Z,2.10
2022-10-06T12:12:03.316Z,1.80
2022-10-06T12:17:34.683Z,1.85
2022-10-06T12:20:14.384Z,2.15
2022-10-06T12:22:50.173Z,1.88
2022-10-06T12:25:28.033Z,1.80
2022-10-06T12:28:10.833Z,2.10
2022-10-06T12:30:55.163Z,2.15
2022-10-06T12:33:38.123Z,1.83
2022-10-06T12:36:16.650Z,2.05
2022-10-06T12:39:04.864Z,1.90
2022-10-06T12:41:57.602Z,1.85
2022-10-06T12:44:28.287Z,2.00
2022-10-06T12:46:58.857Z,1.88
2022-10-06T12:49:36.835Z,1.80
2022-10-06T12:52:20.371Z,1.48
2022-10-06T12:55:01.243Z,1.65
2022-10-06T12:57:30.808Z,1.80
2022-10-06T12:59:59.178Z,1.50
2022-10-06T13:02:28.840Z,1.80
2022-10-06T13:05:00.511Z,1.67
2022-10-06T13:07:30.550Z,1.83
2022-10-06T13:10:19.679Z,1.52
2022-10-06T13:12:51.642Z,1.58
2022-10-06T13:15:23.858Z,2.10
2022-10-06T13:17:54.322Z,2.15
2022-10-06T13:20:35.588Z,1.70
2022-10-06T13:23:10.246Z,1.65
2022-10-06T13:25:47.456Z,1.92
2022-10-06T13:28:23.826Z,1.83
2022-10-06T13:30:54.817Z,1.58
2022-10-06T13:33:24.315Z,1.65
2022-10-06T13:35:54.758Z,1.50
2022-10-06T13:38:23.250Z,1.40
2022-10-06T13:41:08.168Z,2.00
2022-10-06T13:43:41.278Z,1.85
2022-10-06T13:46:12.175Z,1.63
2022-10-06T13:48:46.234Z,1.20
2022-10-06T13:51:24.022Z,1.65
2022-10-06T13:53:52.936Z,1.60
2022-10-06T13:56:34.650Z,2.03
2022-10-06T13:59:31.033Z,1.48
2022-10-06T14:02:02.441Z,1.75
2022-10-06T14:04:34.597Z,1.48
2022-10-06T14:07:05.942Z,1.35
2022-10-06T14:09:35.334Z,1.55
2022-10-06T14:12:12.208Z,1.60
2022-10-06T14:14:41.014Z,1.45
2022-10-06T14:17:22.128Z,1.67
2022-10-06T14:19:50.706Z,1.45
2022-10-06T14:22:32.279Z,2.00
2022-10-06T14:25:00.520Z,2.03
2022-10-06T14:27:30.830Z,1.75
2022-10-06T14:29:59.343Z,1.35
2022-10-06T14:32:27.651Z,1.30
2022-10-06T14:34:56.118Z,1.85
2022-10-06T14:37:24.357Z,1.77
2022-10-06T14:39:53.948Z,1.45
2022-10-06T14:42:24.365Z,1.23
2022-10-06T14:44:53.979Z,1.30
2022-10-06T14:47:22.206Z,1.65
2022-10-06T14:49:50.458Z,1.20
2022-10-06T14:52:19.398Z,1.17
2022-10-06T14:54:47.872Z,1.35
2022-10-06T14:57:16.063Z,0.82
2022-10-06T14:59:44.410Z,1.33
2022-10-06T15:02:14.439Z,1.02
2022-10-06T15:04:42.728Z,1.13
2022-10-06T15:07:28.455Z,1.02
2022-10-06T15:09:57.149Z,0.90
2022-10-06T15:12:25.620Z,1.02
2022-10-06T15:14:53.951Z,1.25
2022-10-06T15:17:24.428Z,0.82
2022-10-06T15:19:52.677Z,1.10
2022-10-06T15:22:20.896Z,0.70
2022-10-06T15:24:51.364Z,0.95
2022-10-06T15:27:51.454Z,0.95
2022-10-06T15:30:20.907Z,0.80
2022-10-06T15:32:51.080Z,0.80
2022-10-06T15:35:19.344Z,1.02
2022-10-06T15:37:47.551Z,1.73
2022-10-06T15:40:15.935Z,0.75
2022-10-06T15:42:44.215Z,1.05
2022-10-06T15:45:12.506Z,0.90
2022-10-06T15:47:40.825Z,0.98
2022-10-06T15:50:13.993Z,0.90
2022-10-06T15:52:45.407Z,1.17
2022-10-06T15:55:13.709Z,0.90
2022-10-06T15:57:42.003Z,1.00
2022-10-06T16:00:11.525Z,0.70
2022-10-06T16:02:42.911Z,0.57
2022-10-06T16:05:30.371Z,0.73
2022-10-06T16:07:58.644Z,1.13
2022-10-06T16:10:26.980Z,1.02
2022-10-06T16:12:55.418Z,0.95
2022-10-06T16:15:23.694Z,1.05
2022-10-06T16:17:51.935Z,1.02
2022-10-06T16:20:21.548Z,1.23
2022-10-06T16:22:50.017Z,1.30
2022-10-06T16:25:18.272Z,7.55
2022-10-06T16:27:46.537Z,11.18
2022-10-06T16:30:14.790Z,23.92
2022-10-06T16:32:43.039Z,6.18
2022-10-06T16:35:16.025Z,3.42
2022-10-06T16:37:49.926Z,8.35
2022-10-06T16:40:18.953Z,1.63
2022-10-06T16:42:47.227Z,1.70
2022-10-06T16:45:15.898Z,3.80
2022-10-06T16:47:44.213Z,2.45
2022-10-06T16:50:12.525Z,1.80
2022-10-06T16:52:41.052Z,1.67
2022-10-06T16:55:10.995Z,1.05
2022-10-06T16:57:39.288Z,1.35
2022-10-06T17:00:08.460Z,0.90
2022-10-06T17:02:38.628Z,1.23
2022-10-06T17:05:07.390Z,1.08
2022-10-06T17:07:36.084Z,1.45
2022-10-06T17:10:21.214Z,1.35
2022-10-06T17:12:51.158Z,1.45
2022-10-06T17:15:19.579Z,1.13
2022-10-06T17:17:47.845Z,1.33
2022-10-06T17:20:16.916Z,1.60
2022-10-06T17:22:45.140Z,1.50
2022-10-06T17:25:14.116Z,1.25
2022-10-06T17:27:42.627Z,1.05
2022-10-06T17:30:15.302Z,1.10
2022-10-06T17:32:44.199Z,1.25
2022-10-06T17:35:12.422Z,1.33
2022-10-06T17:37:40.737Z,1.30
2022-10-06T17:40:10.126Z,1.73
2022-10-06T17:42:38.824Z,1.10
2022-10-06T17:45:07.879Z,1.75
2022-10-06T17:47:37.553Z,2.22
2022-10-06T17:50:06.587Z,1.25
2022-10-06T17:52:35.502Z,1.27
2022-10-06T17:55:03.787Z,1.45
2022-10-06T17:57:32.055Z,1.23
2022-10-06T18:00:00.334Z,1.05
2022-10-06T18:02:28.666Z,1.20
2022-10-06T18:04:58.367Z,1.13
2022-10-06T18:07:26.572Z,0.95
2022-10-06T18:10:08.683Z,1.25
2022-10-06T18:12:38.550Z,1.35
2022-10-06T18:15:12.335Z,0.98
2022-10-06T18:17:41.395Z,1.35
2022-10-06T18:20:11.520Z,1.30
2022-10-06T18:22:40.046Z,1.42
2022-10-06T18:25:09.847Z,1.80
2022-10-06T18:27:38.879Z,1.77
2022-10-06T18:30:08.763Z,1.80
2022-10-06T18:38:15.300Z,2.67
2022-10-06T18:40:43.523Z,2.10
2022-10-06T18:43:11.783Z,1.70
2022-10-06T18:45:57.359Z,2.22
2022-10-06T18:48:45.281Z,4.47
2022-10-06T18:51:14.834Z,2.38
2022-10-06T18:53:43.437Z,3.72
2022-10-06T18:56:13.162Z,2.00
2022-10-06T18:58:42.289Z,2.50
2022-10-06T19:01:10.897Z,2.20
2022-10-06T19:03:39.340Z,2.05
2022-10-06T19:06:08.059Z,2.67
2022-10-06T19:08:37.692Z,2.65
2022-10-06T19:11:25.189Z,3.40
2022-10-06T19:13:56.173Z,2.97
2022-10-06T19:16:24.674Z,2.80
2022-10-06T19:18:52.972Z,2.53
2022-10-06T19:21:21.186Z,2.42
2022-10-06T19:23:51.308Z,1.88
2022-10-06T19:26:22.535Z,2.35
2022-10-06T19:28:53.585Z,2.13
2022-10-06T19:31:22.487Z,2.88
2022-10-06T19:33:50.922Z,2.63
2022-10-06T19:36:19.486Z,2.63
2022-10-06T19:38:47.838Z,2.72
2022-10-06T19:41:34.789Z,3.08
2022-10-06T19:44:03.803Z,3.83
2022-10-06T19:46:32.081Z,3.20
2022-10-06T19:49:05.698Z,3.25
2022-10-06T19:51:35.118Z,4.20
2022-10-06T19:54:03.815Z,3.58
2022-10-06T19:56:34.041Z,2.67
2022-10-06T19:59:03.469Z,2.10
2022-10-06T20:01:32.427Z,2.85
2022-10-06T20:04:02.965Z,2.28
2022-10-06T20:06:32.120Z,4.43
2022-10-06T20:09:05.588Z,3.58
2022-10-06T20:11:36.072Z,4.00
2022-10-06T20:14:04.963Z,3.80
2022-10-06T20:16:33.397Z,3.72
2022-10-06T20:19:01.658Z,3.88
2022-10-06T20:21:31.410Z,4.18
2022-10-06T20:24:01.369Z,4.32
2022-10-06T20:26:31.995Z,6.32
2022-10-06T20:29:03.614Z,3.38
2022-10-06T20:31:34.406Z,3.88
2022-10-06T20:34:05.022Z,3.47
2022-10-06T20:36:35.208Z,3.47
2022-10-06T20:39:27.310Z,4.10
2022-10-06T20:41:56.159Z,4.10
2022-10-06T20:44:25.766Z,3.80
2022-10-06T20:46:54.484Z,3.88
2022-10-06T20:49:22.895Z,3.78
2022-10-06T20:51:52.154Z,4.72
2022-10-06T20:54:21.828Z,4.03
2022-10-06T20:56:52.068Z,4.07
2022-10-06T20:59:21.421Z,4.38
2022-10-06T21:01:52.228Z,4.30
2022-10-06T21:04:21.291Z,4.25
2022-10-06T21:06:50.973Z,4.07
2022-10-06T21:09:20.529Z,4.00
2022-10-06T21:11:50.421Z,3.83
2022-10-06T21:14:19.835Z,3.80
2022-10-06T21:16:51.782Z,3.92
2022-10-06T21:19:21.152Z,4.47
2022-10-06T21:21:52.017Z,4.10
2022-10-06T21:24:20.847Z,4.07
2022-10-06T21:26:50.496Z,3.75
2022-10-06T21:29:18.854Z,4.53
2022-10-06T21:31:47.249Z,4.10
2022-10-06T21:34:17.262Z,3.80
2022-10-06T21:36:45.702Z,4.00
2022-10-06T21:39:14.623Z,4.13
2022-10-06T21:41:43.753Z,4.30
2022-10-06T21:44:13.809Z,4.22
2022-10-06T21:46:43.949Z,4.70
2022-10-06T21:49:14.321Z,4.18
2022-10-06T21:51:47.152Z,3.90
2022-10-06T21:54:16.043Z,3.60
2022-10-06T21:56:44.515Z,4.95
2022-10-06T21:59:13.292Z,5.25
2022-10-06T22:01:43.330Z,4.28
2022-10-06T22:04:13.043Z,4.30
2022-10-06T22:06:44.110Z,4.38
2022-10-06T22:09:15.795Z,3.90
2022-10-06T22:11:44.718Z,3.90
2022-10-06T22:14:14.442Z,3.78
2022-10-06T22:16:43.476Z,4.20
2022-10-06T22:19:13.624Z,4.28
2022-10-06T22:21:44.787Z,3.88
2022-10-06T22:24:14.486Z,4.55
2022-10-06T22:26:43.979Z,3.50
2022-10-06T22:29:13.738Z,2.63
2022-10-06T22:31:44.632Z,2.90
2022-10-06T22:34:14.520Z,3.40
2022-10-06T22:36:44.373Z,2.65
2022-10-06T22:39:12.965Z,4.00
2022-10-06T22:41:41.420Z,3.50
2022-10-06T22:44:09.879Z,3.65
2022-10-06T22:46:38.999Z,4.05
2022-10-06T22:49:07.749Z,3.45
2022-10-06T22:51:36.607Z,3.50
2022-10-06T22:54:06.643Z,3.72
2022-10-06T22:56:35.527Z,4.23
2022-10-06T22:59:04.481Z,3.97
2022-10-06T23:01:32.967Z,3.97
2022-10-06T23:04:01.333Z,4.30
2022-10-06T23:06:31.447Z,3.30
2022-10-06T23:09:00.354Z,4.78
2022-10-06T23:11:30.134Z,3.95
2022-10-06T23:13:58.642Z,4.90
2022-10-06T23:16:27.101Z,4.13
2022-10-06T23:18:56.076Z,3.87
2022-10-06T23:21:27.770Z,3.43
2022-10-06T23:23:59.146Z,3.30
2022-10-06T23:26:29.150Z,2.67
2022-10-06T23:28:59.414Z,2.77
2022-10-06T23:31:28.798Z,2.88
2022-10-06T23:33:57.279Z,3.53
2022-10-06T23:36:25.770Z,3.55
2022-10-06T23:38:54.229Z,3.25
2022-10-06T23:41:22.623Z,2.93
2022-10-06T23:43:52.560Z,2.60
2022-10-06T23:46:21.079Z,3.30
2022-10-06T23:48:49.550Z,3.00
2022-10-06T23:51:18.066Z,2.95
2022-10-06T23:53:46.810Z,3.17
2022-10-06T23:56:15.486Z,3.35
2022-10-06T23:58:43.951Z,3.28
